createdAt,value
2019-05-30T00:01:34.274Z,15.63
2019-05-30T00:04:04.880Z,15.63
2019-05-30T00:06:34.408Z,15.64
2019-05-30T00:09:05.644Z,15.65
2019-05-30T00:11:35.169Z,15.65
2019-05-30T00:14:05.029Z,15.67
2019-05-30T00:16:34.532Z,15.70
2019-05-30T00:19:05.036Z,15.69
2019-05-30T00:21:34.589Z,15.68
2019-05-30T00:24:04.320Z,15.65
2019-05-30T00:26:34.805Z,15.63
2019-05-30T00:29:04.562Z,15.60
2019-05-30T00:31:34.133Z,15.56
2019-05-30T00:34:05.850Z,15.55
2019-05-30T00:36:35.479Z,15.52
2019-05-30T00:39:07.287Z,15.50
2019-05-30T00:41:36.677Z,15.46
2019-05-30T00:44:06.335Z,15.44
2019-05-30T00:46:35.847Z,15.39
2019-05-30T00:49:06.507Z,15.37
2019-05-30T00:51:36.194Z,15.32
2019-05-30T00:54:06.876Z,15.30
2019-05-30T00:56:36.570Z,15.29
2019-05-30T00:59:07.656Z,15.29
2019-05-30T01:01:37.044Z,15.28
2019-05-30T01:04:07.545Z,15.30
2019-05-30T01:06:37.044Z,15.31
2019-05-30T01:09:07.502Z,15.31
2019-05-30T01:11:36.903Z,15.30
2019-05-30T01:14:07.536Z,15.32
2019-05-30T01:16:37.052Z,15.33
2019-05-30T01:19:07.339Z,15.33
2019-05-30T01:21:36.988Z,15.33
2019-05-30T01:24:07.719Z,15.35
2019-05-30T01:26:37.151Z,15.35
2019-05-30T01:29:07.638Z,15.37
2019-05-30T01:31:38.158Z,15.38
2019-05-30T01:34:07.991Z,15.38
2019-05-30T01:36:38.429Z,15.40
2019-05-30T01:39:08.240Z,15.42
2019-05-30T01:41:37.870Z,15.43
2019-05-30T01:44:08.373Z,15.42
2019-05-30T01:46:37.790Z,15.42
2019-05-30T01:49:08.592Z,15.41
2019-05-30T01:51:38.259Z,15.42
2019-05-30T01:54:08.820Z,15.42
2019-05-30T01:56:38.214Z,15.42
2019-05-30T01:59:08.805Z,15.41
2019-05-30T02:01:38.250Z,15.40
2019-05-30T02:04:07.681Z,15.39
2019-05-30T02:06:38.108Z,15.39
2019-05-30T02:09:09.543Z,15.39
2019-05-30T02:11:39.206Z,15.37
2019-05-30T02:14:09.803Z,15.35
2019-05-30T02:16:39.361Z,15.35
2019-05-30T02:19:10.539Z,15.33
2019-05-30T02:21:40.558Z,15.32
2019-05-30T02:24:12.086Z,15.34
2019-05-30T02:26:41.280Z,15.32
2019-05-30T02:29:10.656Z,15.30
2019-05-30T02:31:40.205Z,15.31
2019-05-30T02:34:12.257Z,15.30
2019-05-30T02:36:41.763Z,15.30
2019-05-30T02:39:11.936Z,15.30
2019-05-30T02:41:42.856Z,15.31
2019-05-30T02:44:12.655Z,15.30
2019-05-30T02:46:42.133Z,15.30
2019-05-30T02:49:13.710Z,15.32
2019-05-30T02:51:42.664Z,15.33
2019-05-30T02:54:13.240Z,15.33
2019-05-30T02:56:42.937Z,15.37
2019-05-30T02:59:13.587Z,15.37
2019-05-30T03:02:00.083Z,15.39
2019-05-30T03:04:14.775Z,15.39
2019-05-30T03:06:45.465Z,15.40
2019-05-30T03:09:15.105Z,15.42
2019-05-30T03:11:44.520Z,15.39
2019-05-30T03:14:19.113Z,15.40
2019-05-30T03:16:46.290Z,15.38
2019-05-30T03:19:15.641Z,15.38
2019-05-30T03:21:45.067Z,15.40
2019-05-30T03:24:14.555Z,15.37
2019-05-30T03:26:44.197Z,15.34
2019-05-30T03:29:14.395Z,15.34
2019-05-30T03:31:45.356Z,15.33
2019-05-30T03:34:25.503Z,15.43
2019-05-30T03:36:46.143Z,15.45
2019-05-30T03:39:15.718Z,15.44
2019-05-30T03:41:46.005Z,15.37
2019-05-30T03:44:15.849Z,15.35
2019-05-30T03:46:48.463Z,15.37
2019-05-30T03:49:20.817Z,15.35
2019-05-30T03:51:52.134Z,15.35
2019-05-30T03:54:23.538Z,15.34
2019-05-30T03:57:04.730Z,15.35
2019-05-30T03:59:43.862Z,15.35
2019-05-30T04:02:16.291Z,15.38
2019-05-30T04:04:48.767Z,15.37
2019-05-30T04:07:21.197Z,15.42
2019-05-30T04:09:53.985Z,15.44
2019-05-30T04:12:29.395Z,15.39
2019-05-30T04:15:08.380Z,15.38
2019-05-30T04:17:38.873Z,15.39
2019-05-30T04:20:09.336Z,15.39
2019-05-30T04:22:39.248Z,15.42
2019-05-30T04:25:10.077Z,15.38
2019-05-30T04:27:39.439Z,15.32
2019-05-30T04:30:09.978Z,15.29
2019-05-30T04:32:39.415Z,15.30
2019-05-30T04:35:10.244Z,15.27
2019-05-30T04:37:39.953Z,15.26
2019-05-30T04:40:11.309Z,15.18
2019-05-30T04:42:41.047Z,15.06
2019-05-30T04:45:11.826Z,14.93
2019-05-30T04:47:41.610Z,14.71
2019-05-30T04:50:14.227Z,14.54
2019-05-30T04:52:43.647Z,14.39
2019-05-30T04:55:15.991Z,14.29
2019-05-30T04:57:45.249Z,14.25
2019-05-30T05:00:17.001Z,14.16
2019-05-30T05:02:46.632Z,14.13
2019-05-30T05:05:22.641Z,14.10
2019-05-30T05:07:47.159Z,14.06
2019-05-30T05:10:18.224Z,14.00
2019-05-30T05:12:47.694Z,13.92
2019-05-30T05:15:18.551Z,13.85
2019-05-30T05:17:48.062Z,13.77
2019-05-30T05:20:17.417Z,13.70
2019-05-30T05:22:46.785Z,13.69
2019-05-30T05:25:17.359Z,13.70
2019-05-30T05:27:46.877Z,13.71
2019-05-30T05:30:18.081Z,13.73
2019-05-30T05:32:47.448Z,13.77
2019-05-30T05:35:18.671Z,13.80
2019-05-30T05:37:48.107Z,13.82
2019-05-30T05:40:18.138Z,13.83
2019-05-30T05:42:47.570Z,13.87
2019-05-30T05:45:18.269Z,13.91
2019-05-30T05:47:47.619Z,13.95
2019-05-30T05:50:18.366Z,14.01
2019-05-30T05:52:47.917Z,14.05
2019-05-30T05:55:17.293Z,14.09
2019-05-30T05:57:46.698Z,14.15
2019-05-30T06:00:16.861Z,14.22
2019-05-30T06:02:46.255Z,14.25
2019-05-30T06:05:15.982Z,14.27
2019-05-30T06:07:45.410Z,14.34
2019-05-30T06:10:14.856Z,14.37
2019-05-30T06:12:44.242Z,14.32
2019-05-30T06:15:13.946Z,14.34
2019-05-30T06:17:43.425Z,14.29
2019-05-30T06:20:13.642Z,14.27
2019-05-30T06:22:43.051Z,14.27
2019-05-30T06:25:13.560Z,14.26
2019-05-30T06:27:43.148Z,14.26
2019-05-30T06:30:14.128Z,14.24
2019-05-30T06:32:43.582Z,14.20
2019-05-30T06:35:13.962Z,14.23
2019-05-30T06:37:43.547Z,14.30
2019-05-30T06:40:13.486Z,14.36
2019-05-30T06:42:45.973Z,14.43
2019-05-30T06:45:14.174Z,14.53
2019-05-30T06:47:43.713Z,14.59
2019-05-30T06:50:13.437Z,14.68
2019-05-30T06:52:44.037Z,14.76
2019-05-30T06:55:13.778Z,14.78
2019-05-30T06:57:43.232Z,14.83
2019-05-30T07:00:13.075Z,14.86
2019-05-30T07:02:42.465Z,14.89
2019-05-30T07:05:12.782Z,14.96
2019-05-30T07:07:42.895Z,15.06
2019-05-30T07:10:12.989Z,15.10
2019-05-30T07:12:42.444Z,15.18
2019-05-30T07:15:12.476Z,15.28
2019-05-30T07:17:41.945Z,15.33
2019-05-30T07:20:12.871Z,15.37
2019-05-30T07:22:42.563Z,15.35
2019-05-30T07:25:12.658Z,15.43
2019-05-30T07:27:42.296Z,15.50
2019-05-30T07:30:14.118Z,15.56
2019-05-30T07:32:43.543Z,15.64
2019-05-30T07:35:13.399Z,15.76
2019-05-30T07:37:46.401Z,15.80
2019-05-30T07:40:19.485Z,15.83
2019-05-30T07:42:45.772Z,15.85
2019-05-30T07:45:16.326Z,15.90
2019-05-30T07:47:45.720Z,15.97
2019-05-30T07:50:15.423Z,16.07
2019-05-30T07:52:45.019Z,16.20
2019-05-30T07:55:17.037Z,16.32
2019-05-30T07:57:46.605Z,16.35
2019-05-30T08:00:17.025Z,16.41
2019-05-30T08:02:47.092Z,16.48
2019-05-30T08:05:23.949Z,16.54
2019-05-30T08:07:47.993Z,16.63
2019-05-30T08:10:17.710Z,16.57
2019-05-30T08:12:47.096Z,16.51
2019-05-30T08:15:16.885Z,16.43
2019-05-30T08:17:46.351Z,16.44
2019-05-30T08:20:17.647Z,16.41
2019-05-30T08:22:47.056Z,16.43
2019-05-30T08:25:16.834Z,16.36
2019-05-30T08:27:46.242Z,16.49
2019-05-30T08:30:16.517Z,16.51
2019-05-30T08:32:46.051Z,16.63
2019-05-30T08:35:15.693Z,16.68
2019-05-30T08:37:45.100Z,16.75
2019-05-30T08:40:14.918Z,16.77
2019-05-30T08:42:44.505Z,16.81
2019-05-30T08:45:14.714Z,16.82
2019-05-30T08:47:44.834Z,16.85
2019-05-30T08:50:15.715Z,16.83
2019-05-30T08:52:45.135Z,16.85
2019-05-30T08:55:14.837Z,16.80
2019-05-30T08:57:44.215Z,16.80
2019-05-30T09:00:15.561Z,16.84
2019-05-30T09:02:45.215Z,16.91
2019-05-30T09:05:14.936Z,16.96
2019-05-30T09:07:44.648Z,17.00
2019-05-30T09:10:14.528Z,17.00
2019-05-30T09:12:49.012Z,17.10
2019-05-30T09:15:34.871Z,17.15
2019-05-30T09:18:04.557Z,17.23
2019-05-30T09:20:34.150Z,17.35
2019-05-30T09:23:03.884Z,17.55
2019-05-30T09:25:33.725Z,17.70
2019-05-30T09:28:04.418Z,17.72
2019-05-30T09:30:34.020Z,17.76
2019-05-30T09:33:03.423Z,17.87
2019-05-30T09:35:34.468Z,17.78
2019-05-30T09:38:05.917Z,17.72
2019-05-30T09:40:35.448Z,17.59
2019-05-30T09:43:05.218Z,17.50
2019-05-30T09:45:35.786Z,17.51
2019-05-30T09:48:05.417Z,17.50
2019-05-30T09:50:34.792Z,17.54
2019-05-30T09:53:04.483Z,17.63
2019-05-30T09:55:34.292Z,17.73
2019-05-30T09:58:04.053Z,17.73
2019-05-30T10:00:34.281Z,17.72
2019-05-30T10:03:04.165Z,17.78
2019-05-30T10:05:34.019Z,17.91
2019-05-30T10:08:03.597Z,17.94
2019-05-30T10:10:33.045Z,17.99
2019-05-30T10:13:02.674Z,18.10
2019-05-30T10:15:32.282Z,18.17
2019-05-30T10:18:01.636Z,18.17
2019-05-30T10:20:32.125Z,18.13
2019-05-30T10:23:03.583Z,18.18
2019-05-30T10:25:32.597Z,18.09
2019-05-30T10:28:01.984Z,18.06
2019-05-30T10:30:31.701Z,18.15
2019-05-30T10:33:01.080Z,18.17
2019-05-30T10:35:30.769Z,18.18
2019-05-30T10:38:00.224Z,18.23
2019-05-30T10:40:32.101Z,18.24
2019-05-30T10:43:00.994Z,18.41
2019-05-30T10:45:30.437Z,18.50
2019-05-30T10:48:00.470Z,18.58
2019-05-30T10:50:31.001Z,18.61
2019-05-30T10:53:00.434Z,18.59
2019-05-30T10:55:30.044Z,18.54
2019-05-30T10:57:59.824Z,18.44
2019-05-30T11:00:41.286Z,18.31
2019-05-30T11:03:10.700Z,18.22
2019-05-30T11:05:40.049Z,18.19
2019-05-30T11:08:12.483Z,18.22
2019-05-30T11:10:42.901Z,18.28
2019-05-30T11:13:15.388Z,18.39
2019-05-30T11:15:45.122Z,18.53
2019-05-30T11:18:14.808Z,18.67
2019-05-30T11:20:44.437Z,18.64
2019-05-30T11:23:13.832Z,18.57
2019-05-30T11:25:43.223Z,18.53
2019-05-30T11:28:12.783Z,18.52
2019-05-30T11:30:42.158Z,18.48
2019-05-30T11:33:12.625Z,18.46
2019-05-30T11:35:42.090Z,18.40
2019-05-30T11:38:11.476Z,18.36
2019-05-30T11:40:41.316Z,18.40
2019-05-30T11:43:10.852Z,18.39
2019-05-30T11:45:40.863Z,18.39
2019-05-30T11:48:10.639Z,18.44
2019-05-30T11:50:40.016Z,18.54
2019-05-30T11:53:09.499Z,18.68
2019-05-30T11:55:39.112Z,18.78
2019-05-30T11:58:08.772Z,18.82
2019-05-30T12:00:38.146Z,18.73
2019-05-30T12:03:07.525Z,18.66
2019-05-30T12:05:36.916Z,18.67
2019-05-30T12:08:06.385Z,18.76
2019-05-30T12:10:36.062Z,18.84
2019-05-30T12:13:05.604Z,18.89
2019-05-30T12:15:34.978Z,18.94
2019-05-30T12:18:04.522Z,18.99
2019-05-30T12:20:34.867Z,19.05
2019-05-30T12:23:04.898Z,19.11
2019-05-30T12:25:34.468Z,19.15
2019-05-30T12:28:04.882Z,19.09
2019-05-30T12:30:34.530Z,19.01
2019-05-30T12:33:04.074Z,18.97
2019-05-30T12:35:34.039Z,18.94
2019-05-30T12:38:06.509Z,18.95
2019-05-30T12:40:34.477Z,18.96
2019-05-30T12:43:04.987Z,19.04
2019-05-30T12:45:35.764Z,19.09
2019-05-30T12:48:05.575Z,19.16
2019-05-30T12:50:34.951Z,19.18
2019-05-30T12:53:05.681Z,19.17
2019-05-30T12:55:37.566Z,19.08
2019-05-30T12:58:07.186Z,19.12
2019-05-30T13:00:38.301Z,19.36
2019-05-30T13:03:07.732Z,19.83
2019-05-30T13:05:37.330Z,20.22
2019-05-30T13:08:20.463Z,20.45
2019-05-30T13:10:37.964Z,20.54
2019-05-30T13:13:07.381Z,20.42
2019-05-30T13:15:36.917Z,20.33
2019-05-30T13:18:07.151Z,20.07
2019-05-30T13:20:36.772Z,19.89
2019-05-30T13:23:07.014Z,19.89
2019-05-30T13:25:36.400Z,19.98
2019-05-30T13:28:08.404Z,20.11
2019-05-30T13:30:37.320Z,20.43
2019-05-30T13:33:06.968Z,20.64
2019-05-30T13:35:36.622Z,20.83
2019-05-30T13:38:07.600Z,20.90
2019-05-30T13:40:37.294Z,20.93
2019-05-30T13:43:08.010Z,20.91
2019-05-30T13:45:37.610Z,20.86
2019-05-30T13:48:06.987Z,20.69
2019-05-30T13:50:36.442Z,20.49
2019-05-30T13:53:07.404Z,20.32
2019-05-30T13:55:36.909Z,20.23
2019-05-30T13:58:06.302Z,20.11
2019-05-30T14:00:36.050Z,20.01
2019-05-30T14:03:06.275Z,19.83
2019-05-30T14:05:35.891Z,19.66
2019-05-30T14:08:09.173Z,19.51
2019-05-30T14:10:36.596Z,19.33
2019-05-30T14:13:06.710Z,19.10
2019-05-30T14:15:36.215Z,19.05
2019-05-30T14:18:07.287Z,19.10
2019-05-30T14:20:36.713Z,19.27
2019-05-30T14:23:07.367Z,19.54
2019-05-30T14:25:36.807Z,19.88
2019-05-30T14:28:06.381Z,20.47
2019-05-30T14:30:35.981Z,20.94
2019-05-30T14:33:06.074Z,20.93
2019-05-30T14:35:35.493Z,20.62
2019-05-30T14:38:04.881Z,20.34
2019-05-30T14:40:34.402Z,20.21
2019-05-30T14:43:05.210Z,20.10
2019-05-30T14:45:34.918Z,20.07
2019-05-30T14:48:04.803Z,20.09
2019-05-30T14:50:34.923Z,20.22
2019-05-30T14:53:04.673Z,20.56
2019-05-30T14:55:34.363Z,20.81
2019-05-30T14:58:07.154Z,21.00
2019-05-30T15:00:36.892Z,21.19
2019-05-30T15:03:09.156Z,21.45
2019-05-30T15:05:38.025Z,22.11
2019-05-30T15:08:08.411Z,22.73
2019-05-30T15:10:37.940Z,23.37
2019-05-30T15:13:07.531Z,23.69
2019-05-30T15:15:37.012Z,23.92
2019-05-30T15:18:07.163Z,24.22
2019-05-30T15:20:36.641Z,24.51
2019-05-30T15:23:07.538Z,24.60
2019-05-30T15:25:37.106Z,24.88
2019-05-30T15:28:07.895Z,25.18
2019-05-30T15:30:37.974Z,25.03
2019-05-30T15:33:08.273Z,24.79
2019-05-30T15:35:37.856Z,24.78
2019-05-30T15:38:08.782Z,24.85
2019-05-30T15:40:38.167Z,24.66
2019-05-30T15:43:07.746Z,24.58
2019-05-30T15:45:37.143Z,24.42
2019-05-30T15:48:08.159Z,24.49
2019-05-30T15:50:37.710Z,24.69
2019-05-30T15:53:07.343Z,24.85
2019-05-30T15:55:36.669Z,24.72
2019-05-30T15:58:06.114Z,24.66
2019-05-30T16:00:37.042Z,24.70
2019-05-30T16:03:06.568Z,24.69
2019-05-30T16:05:37.146Z,24.55
2019-05-30T16:08:06.534Z,24.45
2019-05-30T16:10:36.959Z,24.23
2019-05-30T16:13:07.469Z,24.07
2019-05-30T16:15:37.146Z,23.61
2019-05-30T16:18:06.892Z,23.28
2019-05-30T16:20:36.366Z,22.93
2019-05-30T16:23:05.821Z,22.55
2019-05-30T16:25:35.408Z,22.37
2019-05-30T16:28:05.378Z,22.29
2019-05-30T16:30:35.070Z,22.23
2019-05-30T16:33:04.760Z,22.21
2019-05-30T16:35:34.217Z,22.12
2019-05-30T16:38:04.049Z,22.13
2019-05-30T16:40:33.818Z,22.06
2019-05-30T16:43:03.436Z,21.99
2019-05-30T16:45:32.787Z,21.94
2019-05-30T16:48:02.333Z,21.91
2019-05-30T16:50:31.900Z,21.87
2019-05-30T16:53:01.271Z,21.85
2019-05-30T16:55:31.150Z,21.87
2019-05-30T16:58:00.600Z,21.92
2019-05-30T17:00:30.163Z,22.00
2019-05-30T17:03:00.093Z,21.93
2019-05-30T17:05:32.451Z,21.87
2019-05-30T17:08:00.712Z,21.80
2019-05-30T17:10:33.114Z,21.73
2019-05-30T17:13:01.243Z,21.61
2019-05-30T17:15:30.781Z,21.52
2019-05-30T17:18:00.143Z,21.42
2019-05-30T17:20:29.792Z,21.28
2019-05-30T17:22:59.190Z,21.20
2019-05-30T17:25:28.597Z,21.15
2019-05-30T17:27:59.016Z,21.15
2019-05-30T17:30:28.933Z,21.16
2019-05-30T17:32:58.601Z,21.14
2019-05-30T17:35:28.517Z,21.18
2019-05-30T17:37:58.044Z,21.17
2019-05-30T17:40:41.182Z,21.15
2019-05-30T17:42:58.837Z,21.11
2019-05-30T17:45:29.347Z,21.08
2019-05-30T17:48:15.321Z,21.04
2019-05-30T17:50:30.240Z,21.07
2019-05-30T17:52:59.727Z,21.00
2019-05-30T17:55:30.107Z,20.94
2019-05-30T17:58:00.683Z,20.86
2019-05-30T18:00:30.662Z,20.84
2019-05-30T18:03:00.168Z,20.91
2019-05-30T18:05:30.860Z,20.94
2019-05-30T18:08:00.363Z,20.94
2019-05-30T18:10:31.090Z,20.96
2019-05-30T18:13:01.855Z,20.89
2019-05-30T18:15:32.504Z,20.87
2019-05-30T18:18:02.071Z,20.79
2019-05-30T18:20:39.954Z,20.70
2019-05-30T18:23:04.289Z,20.60
2019-05-30T18:25:34.369Z,20.56
2019-05-30T18:28:04.029Z,20.49
2019-05-30T18:30:41.461Z,20.48
2019-05-30T18:33:11.212Z,20.45
2019-05-30T18:35:40.788Z,20.41
2019-05-30T18:38:10.263Z,20.36
2019-05-30T18:40:40.037Z,20.31
2019-05-30T18:43:09.459Z,20.27
2019-05-30T18:45:42.049Z,20.26
2019-05-30T18:48:12.791Z,20.21
2019-05-30T18:50:42.442Z,20.16
2019-05-30T18:53:11.942Z,20.12
2019-05-30T18:55:41.393Z,20.12
2019-05-30T18:58:11.074Z,20.07
2019-05-30T19:00:40.447Z,20.07
2019-05-30T19:03:10.002Z,20.02
2019-05-30T19:05:40.427Z,19.98
2019-05-30T19:08:10.117Z,19.95
2019-05-30T19:10:39.652Z,19.92
2019-05-30T19:13:09.033Z,19.86
2019-05-30T19:15:38.437Z,19.77
2019-05-30T19:18:09.205Z,19.68
2019-05-30T19:20:38.854Z,19.59
2019-05-30T19:23:08.474Z,19.49
2019-05-30T19:25:37.973Z,19.42
2019-05-30T19:28:08.317Z,19.36
2019-05-30T19:30:40.984Z,19.29
2019-05-30T19:33:09.043Z,19.26
2019-05-30T19:35:38.498Z,19.20
2019-05-30T19:38:08.129Z,19.15
2019-05-30T19:40:38.057Z,19.06
2019-05-30T19:43:07.575Z,18.99
2019-05-30T19:45:38.353Z,18.92
2019-05-30T19:48:07.785Z,18.86
2019-05-30T19:50:37.187Z,18.81
2019-05-30T19:53:06.917Z,18.78
2019-05-30T19:55:37.441Z,18.74
2019-05-30T19:58:06.984Z,18.70
2019-05-30T20:00:54.389Z,18.67
2019-05-30T20:03:07.870Z,18.63
2019-05-30T20:05:38.807Z,18.60
2019-05-30T20:08:09.435Z,18.59
2019-05-30T20:10:39.290Z,18.58
2019-05-30T20:13:09.752Z,18.58
2019-05-30T20:15:39.625Z,18.53
2019-05-30T20:18:09.243Z,18.49
2019-05-30T20:20:53.876Z,18.44
2019-05-30T20:23:09.963Z,18.41
2019-05-30T20:25:43.713Z,18.34
2019-05-30T20:28:11.693Z,18.30
2019-05-30T20:30:41.248Z,18.22
2019-05-30T20:33:10.700Z,18.16
2019-05-30T20:35:41.461Z,18.09
2019-05-30T20:38:11.208Z,18.03
2019-05-30T20:40:40.981Z,17.99
2019-05-30T20:43:10.414Z,17.95
2019-05-30T20:45:46.467Z,17.92
2019-05-30T20:48:11.035Z,17.89
2019-05-30T20:50:41.194Z,17.89
2019-05-30T20:53:10.992Z,17.89
2019-05-30T20:55:40.497Z,17.85
2019-05-30T20:58:10.110Z,17.83
2019-05-30T21:00:41.830Z,17.82
2019-05-30T21:03:11.588Z,17.83
2019-05-30T21:05:42.072Z,17.81
2019-05-30T21:08:12.460Z,17.80
2019-05-30T21:10:43.599Z,17.78
2019-05-30T21:13:13.080Z,17.74
2019-05-30T21:15:44.045Z,17.68
2019-05-30T21:18:13.434Z,17.66
2019-05-30T21:20:44.078Z,17.61
2019-05-30T21:23:13.564Z,17.55
2019-05-30T21:25:43.249Z,17.48
2019-05-30T21:28:12.722Z,17.39
2019-05-30T21:30:43.326Z,17.35
2019-05-30T21:33:13.865Z,17.29
2019-05-30T21:35:43.856Z,17.25
2019-05-30T21:38:13.505Z,17.20
2019-05-30T21:40:44.440Z,17.17
2019-05-30T21:43:13.994Z,17.15
2019-05-30T21:45:44.596Z,17.15
2019-05-30T21:48:14.132Z,17.11
2019-05-30T21:50:45.965Z,17.07
2019-05-30T21:53:14.863Z,17.04
2019-05-30T21:55:44.494Z,17.02
2019-05-30T21:58:13.875Z,17.02
2019-05-30T22:00:46.674Z,17.05
2019-05-30T22:03:16.540Z,17.10
2019-05-30T22:05:48.143Z,17.18
2019-05-30T22:08:17.133Z,17.23
2019-05-30T22:10:47.687Z,17.24
2019-05-30T22:13:17.309Z,17.28
2019-05-30T22:15:48.231Z,17.30
2019-05-30T22:18:17.909Z,17.34
2019-05-30T22:20:47.999Z,17.38
2019-05-30T22:23:17.502Z,17.42
2019-05-30T22:25:48.197Z,17.47
2019-05-30T22:28:17.711Z,17.49
2019-05-30T22:30:48.343Z,17.50
2019-05-30T22:33:18.627Z,17.49
2019-05-30T22:35:48.924Z,17.51
2019-05-30T22:38:18.390Z,17.55
2019-05-30T22:40:47.992Z,17.53
2019-05-30T22:43:25.260Z,17.53
2019-05-30T22:45:50.307Z,17.54
2019-05-30T22:48:19.648Z,17.56
2019-05-30T22:50:49.059Z,17.56
2019-05-30T22:53:18.682Z,17.57
2019-05-30T22:55:49.307Z,17.54
2019-05-30T22:58:19.057Z,17.52
2019-05-30T23:00:48.414Z,17.52
2019-05-30T23:03:18.088Z,17.50
2019-05-30T23:05:47.539Z,17.47
2019-05-30T23:08:16.923Z,17.50
2019-05-30T23:10:47.639Z,17.46
2019-05-30T23:13:17.192Z,17.40
2019-05-30T23:15:46.620Z,17.34
2019-05-30T23:18:15.999Z,17.30
2019-05-30T23:20:46.563Z,17.29
2019-05-30T23:23:16.330Z,17.27
2019-05-30T23:25:47.003Z,17.20
2019-05-30T23:28:16.621Z,17.15
2019-05-30T23:30:46.007Z,17.10
2019-05-30T23:33:15.582Z,17.08
2019-05-30T23:35:45.228Z,17.07
2019-05-30T23:38:14.591Z,17.08
2019-05-30T23:40:44.047Z,17.07
2019-05-30T23:43:13.440Z,17.05
2019-05-30T23:45:42.906Z,17.02
2019-05-30T23:48:12.540Z,17.01
2019-05-30T23:50:42.126Z,17.02
2019-05-30T23:53:11.659Z,17.04
2019-05-30T23:55:41.044Z,17.03
2019-05-30T23:58:10.433Z,17.03
